Startpagina
METAR-TAF:

METAR-TAF

Vliegvelden :

Wiener Neustadt, Oostenrijk

breedte: 47-50-36N, lengte: 016-15-29E, hoogte: 272 m

Actueel weer

Dit bericht is 1 uur en het 10 minuten geleden gemaakt, om 07:00 UTC
Wind 3 kt uit het noorden
Temperatuur
Druk
Zicht: 5000 m
nevel

METAR: LOAN 200700Z 36003KT 5000 BR SCT012ST

Tijdstip: 10:10 (08:10 UTC)

Verwachting

Dit bericht is 1 uur en het 10 minuten geleden gemaakt, om 07:00 UTC
Verwachting geldig van 20 om 07 UTC tot 20 om 15 UTC
Wind 5 kt uit het noorden
Zicht: 5000 m
Verspreide wolken op 1200 ft
nevel
Wijzigt naar
van 20 om 08 UTC tot 20 om 10 UTC
Wind 10 kt uit het noorden met uitschieters tot 20 kt
Zicht 10 km of meer
Gebroken wolken op 3000 ft
Tijdelijke
van 20 om 14 UTC tot 20 om 15 UTC
lichte regenbuien

TAF: LOAN 200700Z 2007/2015 36005KT 5000 BR SCT012 BECMG 2008/2010 35010G20KT 9999 BKN030 TEMPO 2014/2015 -SHRA

Waarnemingen en weersverwachtingen van meer dan 4000 vliegvelden (METAR en TAF).

De beschikbare stations zijn de gele en rode punten op de kaart.

Ga met uw muis naar het station om de naam te zien.

Klik dan om waarnemingen en weersverwachtingen te zien.

kaart wijzigen: klik op de groene knoppen met een zwart kruis om in te zoomen, op de groene knop met een streepje om uit te zoomen of op de groene pijlen voor aangrenzende kaarten.


METAR-TAF: